createdAt,value
2023-01-07T00:01:38.865Z,27.08
2023-01-07T00:03:47.374Z,26.67
2023-01-07T00:05:54.364Z,26.20
2023-01-07T00:08:02.407Z,23.35
2023-01-07T00:10:10.100Z,21.33
2023-01-07T00:12:17.385Z,21.20
2023-01-07T00:14:24.423Z,19.58
2023-01-07T00:16:33.341Z,24.27
2023-01-07T00:18:42.768Z,24.42
2023-01-07T00:20:50.017Z,24.73
2023-01-07T00:22:56.878Z,24.13
2023-01-07T00:25:04.419Z,25.10
2023-01-07T00:27:11.443Z,27.88
2023-01-07T00:29:19.703Z,27.30
2023-01-07T00:31:28.468Z,27.25
2023-01-07T00:33:36.365Z,27.65
2023-01-07T00:35:46.160Z,29.50
2023-01-07T00:37:54.366Z,27.63
2023-01-07T00:40:01.623Z,27.60
2023-01-07T00:42:25.675Z,28.45
2023-01-07T00:44:32.969Z,29.08
2023-01-07T00:46:40.451Z,28.10
2023-01-07T00:48:48.313Z,27.20
2023-01-07T00:50:58.194Z,25.75
2023-01-07T00:53:05.583Z,25.95
2023-01-07T00:55:13.374Z,25.30
2023-01-07T00:57:20.557Z,24.33
2023-01-07T00:59:27.897Z,24.58
2023-01-07T01:01:35.020Z,23.92
2023-01-07T01:03:42.715Z,22.73
2023-01-07T01:05:50.667Z,22.50
2023-01-07T01:08:00.720Z,23.77
2023-01-07T01:10:08.723Z,24.40
2023-01-07T01:12:16.151Z,24.75
2023-01-07T01:14:23.180Z,25.00
2023-01-07T01:16:30.324Z,25.48
2023-01-07T01:18:37.288Z,24.40
2023-01-07T01:20:44.677Z,23.25
2023-01-07T01:22:51.909Z,23.17
2023-01-07T01:25:00.626Z,21.50
2023-01-07T01:27:07.958Z,22.25
2023-01-07T01:29:14.934Z,20.92
2023-01-07T01:31:22.248Z,21.92
2023-01-07T01:33:31.310Z,22.58
2023-01-07T01:35:42.780Z,22.83
2023-01-07T01:37:49.860Z,22.48
2023-01-07T01:39:58.982Z,21.95
2023-01-07T01:42:06.727Z,23.77
2023-01-07T01:44:39.972Z,22.83
2023-01-07T01:46:50.973Z,23.63
2023-01-07T01:49:02.894Z,23.65
2023-01-07T01:51:14.264Z,22.50
2023-01-07T01:53:25.567Z,22.50
2023-01-07T01:55:38.810Z,22.85
2023-01-07T01:57:47.075Z,21.92
2023-01-07T01:59:55.641Z,21.77
2023-01-07T02:02:02.962Z,21.65
2023-01-07T02:04:14.865Z,21.65
2023-01-07T02:06:26.157Z,19.55
2023-01-07T02:08:35.115Z,20.70
2023-01-07T02:10:47.110Z,18.92
2023-01-07T02:13:04.799Z,20.20
2023-01-07T02:15:15.452Z,19.25
2023-01-07T02:17:33.024Z,18.95
2023-01-07T02:20:22.141Z,22.30
2023-01-07T02:22:53.233Z,18.85
2023-01-07T02:25:22.619Z,31.17
2023-01-07T02:28:05.866Z,19.48
2023-01-07T02:30:41.660Z,23.80
2023-01-07T02:33:12.244Z,21.83
2023-01-07T02:35:31.516Z,20.30
2023-01-07T02:37:47.191Z,20.77
2023-01-07T02:40:04.355Z,18.42
2023-01-07T02:42:23.093Z,20.60
2023-01-07T02:44:41.862Z,40.15
2023-01-07T02:46:53.699Z,20.05
2023-01-07T02:49:07.539Z,28.45
2023-01-07T02:51:14.568Z,23.65
2023-01-07T02:53:23.804Z,21.33
2023-01-07T02:55:39.692Z,22.50
2023-01-07T02:58:11.504Z,26.55
2023-01-07T03:00:33.265Z,24.35
2023-01-07T03:03:11.641Z,29.27
2023-01-07T03:05:32.991Z,28.23
2023-01-07T03:07:53.947Z,20.48
2023-01-07T03:10:05.856Z,20.48
2023-01-07T03:12:19.473Z,21.60
2023-01-07T03:14:33.462Z,21.33
2023-01-07T03:16:44.871Z,22.25
2023-01-07T03:18:57.330Z,21.05
2023-01-07T03:21:09.341Z,22.17
2023-01-07T03:23:21.695Z,20.90
2023-01-07T03:25:31.966Z,20.58
2023-01-07T03:27:39.885Z,19.48
2023-01-07T03:29:47.080Z,20.45
2023-01-07T03:32:01.862Z,20.63
2023-01-07T03:34:12.349Z,20.55
2023-01-07T03:36:26.147Z,20.35
2023-01-07T03:38:36.696Z,21.45
2023-01-07T03:40:44.353Z,21.65
2023-01-07T03:42:50.965Z,20.10
2023-01-07T03:45:02.345Z,19.60
2023-01-07T03:47:13.111Z,20.98
2023-01-07T03:49:20.649Z,20.15
2023-01-07T03:51:29.415Z,22.65
2023-01-07T03:53:37.262Z,22.35
2023-01-07T03:55:44.395Z,20.92
2023-01-07T03:57:51.897Z,21.20
2023-01-07T03:59:59.263Z,20.88
2023-01-07T04:02:06.576Z,21.05
2023-01-07T04:04:13.740Z,20.20
2023-01-07T04:06:21.269Z,20.42
2023-01-07T04:08:29.941Z,21.17
2023-01-07T04:10:38.397Z,20.77
2023-01-07T04:12:45.693Z,22.92
2023-01-07T04:14:53.071Z,23.90
2023-01-07T04:17:00.763Z,24.55
2023-01-07T04:19:08.573Z,22.52
2023-01-07T04:21:15.739Z,21.00
2023-01-07T04:23:23.024Z,21.77
2023-01-07T04:25:34.456Z,22.55
2023-01-07T04:27:43.939Z,20.38
2023-01-07T04:29:51.281Z,21.08
2023-01-07T04:31:58.866Z,21.25
2023-01-07T04:34:06.202Z,19.27
2023-01-07T04:36:14.420Z,18.25
2023-01-07T04:38:21.996Z,17.95
2023-01-07T04:40:29.182Z,18.73
2023-01-07T04:42:39.535Z,18.80
2023-01-07T04:44:48.100Z,16.58
2023-01-07T04:46:55.486Z,17.25
2023-01-07T04:49:02.516Z,17.77
2023-01-07T04:51:10.360Z,14.90
2023-01-07T04:53:18.059Z,15.93
2023-01-07T04:55:27.131Z,15.60
2023-01-07T04:57:34.210Z,16.20
2023-01-07T04:59:43.134Z,15.90
2023-01-07T05:01:50.511Z,16.60
2023-01-07T05:03:57.907Z,16.10
2023-01-07T05:06:06.163Z,16.60
2023-01-07T05:08:13.706Z,16.83
2023-01-07T05:10:20.796Z,16.73
2023-01-07T05:12:28.176Z,16.02
2023-01-07T05:14:35.249Z,15.77
2023-01-07T05:16:44.265Z,16.50
2023-01-07T05:18:51.761Z,17.33
2023-01-07T05:20:58.891Z,16.13
2023-01-07T05:23:06.759Z,16.52
2023-01-07T05:25:14.744Z,15.30
2023-01-07T05:27:22.025Z,16.13
2023-01-07T05:29:29.000Z,16.00
2023-01-07T05:31:36.235Z,16.35
2023-01-07T05:33:46.502Z,17.10
2023-01-07T05:35:54.180Z,16.30
2023-01-07T05:38:01.468Z,15.75
2023-01-07T05:40:10.744Z,15.32
2023-01-07T05:42:17.830Z,15.55
2023-01-07T05:44:25.063Z,15.80
2023-01-07T05:46:32.086Z,15.65
2023-01-07T05:48:39.317Z,15.27
2023-01-07T05:50:48.085Z,15.85
2023-01-07T05:52:55.629Z,16.63
2023-01-07T05:55:02.613Z,16.85
2023-01-07T05:57:09.889Z,15.13
2023-01-07T05:59:17.375Z,15.55
2023-01-07T06:01:24.720Z,15.48
2023-01-07T06:03:31.730Z,15.15
2023-01-07T06:05:38.922Z,14.85
2023-01-07T06:07:47.588Z,15.32
2023-01-07T06:09:54.873Z,15.77
2023-01-07T06:12:02.000Z,16.38
2023-01-07T06:14:09.422Z,15.13
2023-01-07T06:16:17.929Z,15.57
2023-01-07T06:18:24.981Z,14.68
2023-01-07T06:20:35.589Z,14.60
2023-01-07T06:22:42.721Z,15.00
2023-01-07T06:24:51.696Z,13.95
2023-01-07T06:26:58.725Z,13.10
2023-01-07T06:29:06.058Z,13.35
2023-01-07T06:31:14.406Z,13.50
2023-01-07T06:33:24.516Z,13.70
2023-01-07T06:35:31.327Z,15.00
2023-01-07T06:37:38.494Z,13.30
2023-01-07T06:39:45.351Z,13.63
2023-01-07T06:41:54.837Z,14.45
2023-01-07T06:44:01.962Z,13.85
2023-01-07T06:46:09.615Z,13.57
2023-01-07T06:48:17.399Z,13.35
2023-01-07T06:50:24.699Z,13.60
2023-01-07T06:52:31.572Z,12.73
2023-01-07T06:54:38.793Z,12.23
2023-01-07T06:56:45.771Z,12.65
2023-01-07T06:58:54.591Z,13.55
2023-01-07T07:01:05.953Z,13.50
2023-01-07T07:03:13.232Z,13.77
2023-01-07T07:05:20.334Z,14.32
2023-01-07T07:07:27.615Z,12.38
2023-01-07T07:09:34.489Z,12.10
2023-01-07T07:11:41.627Z,12.00
2023-01-07T07:13:48.909Z,10.95
2023-01-07T07:15:57.766Z,11.68
2023-01-07T07:18:05.148Z,12.23
2023-01-07T07:20:13.329Z,12.07
2023-01-07T07:22:21.738Z,12.00
2023-01-07T07:24:28.962Z,12.10
2023-01-07T07:26:35.833Z,12.02
2023-01-07T07:28:43.890Z,11.13
2023-01-07T07:30:50.863Z,10.27
2023-01-07T07:32:59.887Z,11.57
2023-01-07T07:35:06.966Z,11.65
2023-01-07T07:37:14.619Z,11.23
2023-01-07T07:39:22.240Z,11.23
2023-01-07T07:41:29.586Z,11.23
2023-01-07T07:43:39.640Z,10.73
2023-01-07T07:45:47.535Z,12.35
2023-01-07T07:47:54.463Z,11.10
2023-01-07T07:50:03.358Z,11.93
2023-01-07T07:52:10.152Z,12.27
2023-01-07T07:54:17.488Z,12.07
2023-01-07T07:56:24.567Z,14.27
2023-01-07T07:58:31.801Z,13.10
2023-01-07T08:00:39.037Z,11.63
2023-01-07T08:02:46.431Z,11.25
2023-01-07T08:04:53.236Z,10.73
2023-01-07T08:07:02.259Z,13.55
2023-01-07T08:09:09.193Z,15.10
2023-01-07T08:11:16.632Z,13.23
2023-01-07T08:13:23.608Z,13.35
2023-01-07T08:15:30.942Z,12.52
2023-01-07T08:17:38.379Z,12.55
2023-01-07T08:19:45.564Z,13.00
2023-01-07T08:21:53.771Z,13.25
2023-01-07T08:24:02.692Z,13.50
2023-01-07T08:26:10.337Z,13.10
2023-01-07T08:28:17.364Z,13.55
2023-01-07T08:30:24.807Z,13.63
2023-01-07T08:32:31.828Z,13.15
2023-01-07T08:34:39.059Z,11.45
2023-01-07T08:36:46.034Z,13.13
2023-01-07T08:38:55.215Z,11.82
2023-01-07T08:41:03.984Z,12.52
2023-01-07T08:43:15.414Z,13.40
2023-01-07T08:45:22.443Z,12.95
2023-01-07T08:47:30.084Z,11.77
2023-01-07T08:49:36.960Z,12.02
2023-01-07T08:51:44.192Z,11.88
2023-01-07T08:53:53.124Z,11.95
2023-01-07T08:56:00.398Z,12.73
2023-01-07T08:58:09.115Z,11.63
2023-01-07T09:00:17.580Z,11.55
2023-01-07T09:02:24.616Z,11.43
2023-01-07T09:04:32.810Z,12.15
2023-01-07T09:06:39.785Z,12.70
2023-01-07T09:08:47.276Z,12.45
2023-01-07T09:10:54.421Z,12.23
2023-01-07T09:13:02.099Z,11.85
2023-01-07T09:15:12.081Z,12.15
2023-01-07T09:17:19.186Z,11.73
2023-01-07T09:19:26.166Z,12.88
2023-01-07T09:21:33.489Z,12.55
2023-01-07T09:23:41.443Z,12.43
2023-01-07T09:25:48.774Z,11.90
2023-01-07T09:27:56.272Z,11.98
2023-01-07T09:30:03.548Z,11.77
2023-01-07T09:32:12.212Z,12.15
2023-01-07T09:34:19.348Z,11.98
2023-01-07T09:36:26.474Z,12.20
2023-01-07T09:38:34.065Z,12.95
2023-01-07T09:40:42.859Z,12.88
2023-01-07T09:42:57.875Z,13.80
2023-01-07T09:45:17.073Z,13.60
2023-01-07T09:47:30.237Z,12.70
2023-01-07T09:49:37.369Z,12.82
2023-01-07T09:51:48.029Z,13.07
2023-01-07T09:53:57.105Z,13.52
2023-01-07T09:56:12.455Z,16.30
2023-01-07T09:58:22.424Z,15.60
2023-01-07T10:00:30.444Z,17.23
2023-01-07T10:02:48.338Z,19.45
2023-01-07T10:05:01.173Z,22.27
2023-01-07T10:07:24.236Z,23.15
2023-01-07T10:09:41.905Z,22.90
2023-01-07T10:11:58.763Z,19.00
2023-01-07T10:14:24.481Z,16.10
2023-01-07T10:16:38.264Z,14.57
2023-01-07T10:18:55.177Z,13.32
2023-01-07T10:21:12.594Z,14.05
2023-01-07T10:23:25.106Z,14.02
2023-01-07T10:25:36.059Z,13.45
2023-01-07T10:27:47.353Z,12.73
2023-01-07T10:29:58.579Z,14.75
2023-01-07T10:32:13.387Z,14.80
2023-01-07T10:34:28.811Z,15.05
2023-01-07T10:36:39.427Z,16.08
2023-01-07T10:38:50.755Z,16.20
2023-01-07T10:41:00.596Z,16.30
2023-01-07T10:43:17.541Z,17.65
2023-01-07T10:45:49.451Z,17.55
2023-01-07T10:50:33.332Z,17.77
2023-01-07T10:52:49.296Z,17.55
2023-01-07T10:55:16.459Z,16.35
2023-01-07T10:57:25.847Z,16.90
2023-01-07T10:59:33.594Z,16.55
2023-01-07T11:01:42.944Z,16.33
2023-01-07T11:03:53.404Z,16.77
2023-01-07T11:06:07.528Z,16.23
2023-01-07T11:08:19.835Z,16.92
2023-01-07T11:10:29.057Z,17.48
2023-01-07T11:12:41.001Z,19.60
2023-01-07T11:14:48.956Z,19.23
2023-01-07T11:17:00.506Z,19.90
2023-01-07T11:19:10.174Z,19.70
2023-01-07T11:21:43.208Z,21.27
2023-01-07T11:23:51.470Z,20.42
2023-01-07T11:26:08.178Z,20.63
2023-01-07T11:28:22.322Z,21.02
2023-01-07T11:30:31.978Z,21.75
2023-01-07T11:32:42.211Z,22.45
2023-01-07T11:34:57.621Z,22.52
2023-01-07T11:37:07.640Z,22.95
2023-01-07T11:39:21.055Z,23.15
2023-01-07T11:41:29.830Z,20.75
2023-01-07T11:43:38.038Z,19.05
2023-01-07T11:46:19.185Z,20.77
2023-01-07T11:48:29.063Z,20.85
2023-01-07T11:50:40.144Z,23.40
2023-01-07T11:52:59.328Z,23.17
2023-01-07T11:55:06.476Z,21.52
2023-01-07T11:57:22.668Z,21.02
2023-01-07T11:59:33.368Z,22.05
2023-01-07T12:01:46.748Z,21.90
2023-01-07T12:04:23.497Z,21.80
2023-01-07T12:06:33.257Z,21.60
2023-01-07T12:08:43.838Z,21.13
2023-01-07T12:10:58.760Z,21.97
2023-01-07T12:13:09.004Z,22.35
2023-01-07T12:15:24.897Z,20.33
2023-01-07T12:17:35.364Z,20.92
2023-01-07T12:20:03.991Z,19.88
2023-01-07T12:22:24.375Z,20.65
2023-01-07T12:25:15.128Z,21.27
2023-01-07T12:27:33.875Z,21.27
2023-01-07T12:29:51.045Z,20.90
2023-01-07T12:32:12.256Z,21.25
2023-01-07T12:34:30.599Z,21.05
2023-01-07T12:36:44.655Z,20.88
2023-01-07T12:38:53.941Z,19.95
2023-01-07T12:41:07.235Z,20.42
2023-01-07T12:43:21.084Z,20.98
2023-01-07T12:45:32.267Z,21.45
2023-01-07T12:47:43.194Z,20.50
2023-01-07T12:49:57.741Z,21.92
2023-01-07T12:52:09.784Z,22.60
2023-01-07T12:54:25.114Z,22.83
2023-01-07T12:56:39.100Z,22.33
2023-01-07T12:58:50.378Z,23.15
2023-01-07T13:01:03.457Z,24.63
2023-01-07T13:03:21.685Z,23.90
2023-01-07T13:05:33.984Z,23.30
2023-01-07T13:09:56.595Z,21.88
2023-01-07T13:12:41.577Z,22.42
2023-01-07T13:14:53.448Z,22.58
2023-01-07T13:17:07.771Z,23.80
2023-01-07T13:19:15.351Z,22.80
2023-01-07T13:21:23.561Z,23.35
2023-01-07T13:23:44.395Z,23.33
2023-01-07T13:26:10.536Z,23.63
2023-01-07T13:28:47.307Z,23.65
2023-01-07T13:31:08.165Z,23.48
2023-01-07T13:33:25.843Z,24.65
2023-01-07T13:35:51.888Z,23.33
2023-01-07T13:38:15.317Z,23.30
2023-01-07T13:40:54.036Z,23.35
2023-01-07T13:43:12.700Z,24.33
2023-01-07T13:45:22.891Z,22.75
2023-01-07T13:47:39.757Z,23.30
2023-01-07T13:49:56.656Z,23.85
2023-01-07T13:52:18.582Z,23.10
2023-01-07T13:54:59.618Z,23.17
2023-01-07T13:57:48.060Z,22.27
2023-01-07T13:59:56.883Z,23.95
2023-01-07T14:02:26.377Z,22.88
2023-01-07T14:04:50.227Z,22.70
2023-01-07T14:06:57.784Z,23.15
2023-01-07T14:09:31.046Z,22.00
2023-01-07T14:11:50.922Z,22.63
2023-01-07T14:14:03.892Z,22.58
2023-01-07T14:16:18.816Z,23.63
2023-01-07T14:19:07.154Z,22.98
2023-01-07T14:21:34.844Z,22.83
2023-01-07T14:23:47.417Z,21.90
2023-01-07T14:26:11.391Z,24.13
2023-01-07T14:28:37.666Z,23.40
2023-01-07T14:30:48.613Z,22.70
2023-01-07T14:33:04.219Z,24.13
2023-01-07T14:35:30.090Z,24.33
2023-01-07T14:37:39.407Z,24.42
2023-01-07T14:39:48.047Z,23.30
2023-01-07T14:42:35.691Z,23.27
2023-01-07T14:44:42.818Z,23.52
2023-01-07T14:46:56.320Z,23.13
2023-01-07T14:49:35.000Z,23.50
2023-01-07T14:51:56.180Z,22.83
2023-01-07T14:54:24.335Z,22.38
2023-01-07T14:56:51.686Z,23.42
2023-01-07T14:59:35.180Z,23.05
2023-01-07T15:02:14.059Z,22.30
2023-01-07T15:04:56.039Z,21.80
2023-01-07T15:07:06.293Z,23.17
2023-01-07T15:09:32.625Z,22.55
2023-01-07T15:11:57.967Z,22.02
2023-01-07T15:14:26.260Z,22.60
2023-01-07T15:16:36.938Z,21.58
2023-01-07T15:18:51.682Z,21.70
2023-01-07T15:21:12.583Z,21.35
2023-01-07T15:23:28.014Z,20.52
2023-01-07T15:25:48.192Z,22.20
2023-01-07T15:28:02.478Z,20.73
2023-01-07T15:30:22.680Z,21.73
2023-01-07T15:32:40.151Z,21.10
2023-01-07T15:34:48.412Z,20.40
2023-01-07T15:36:56.259Z,21.67
2023-01-07T15:41:35.463Z,20.70
2023-01-07T15:43:42.735Z,20.63
2023-01-07T15:45:50.868Z,21.58
2023-01-07T15:48:09.658Z,20.90
2023-01-07T15:50:28.345Z,21.58
2023-01-07T15:52:35.783Z,20.23
2023-01-07T15:54:42.915Z,20.98
2023-01-07T15:56:54.869Z,20.50
2023-01-07T15:59:01.990Z,19.85
2023-01-07T16:01:11.307Z,21.08
2023-01-07T16:03:20.396Z,21.13
2023-01-07T16:05:28.860Z,21.27
2023-01-07T16:07:37.715Z,19.88
2023-01-07T16:09:49.056Z,20.65
2023-01-07T16:11:58.848Z,19.80
2023-01-07T16:14:07.772Z,19.45
2023-01-07T16:16:19.813Z,21.10
2023-01-07T16:18:27.156Z,19.92
2023-01-07T16:20:36.752Z,20.27
2023-01-07T16:22:45.930Z,19.63
2023-01-07T16:24:54.905Z,20.20
2023-01-07T16:27:06.335Z,20.48
2023-01-07T16:29:18.625Z,19.67
2023-01-07T16:31:28.718Z,19.20
2023-01-07T16:33:38.611Z,20.60
2023-01-07T16:35:46.938Z,19.83
2023-01-07T16:37:54.878Z,19.58
2023-01-07T16:40:02.261Z,19.25
2023-01-07T16:42:24.838Z,19.63
2023-01-07T16:45:01.887Z,19.70
2023-01-07T16:47:16.803Z,19.48
2023-01-07T16:49:29.468Z,18.50
2023-01-07T16:51:42.962Z,20.23
2023-01-07T16:53:49.812Z,19.95
2023-01-07T16:55:58.687Z,18.15
2023-01-07T16:58:07.457Z,17.42
2023-01-07T17:00:21.865Z,17.88
2023-01-07T17:02:34.426Z,18.10
2023-01-07T17:04:41.735Z,17.15
2023-01-07T17:06:49.034Z,17.27
2023-01-07T17:08:58.043Z,17.65
2023-01-07T17:11:10.309Z,17.95
2023-01-07T17:13:40.823Z,17.60
2023-01-07T17:15:48.123Z,17.92
2023-01-07T17:17:55.310Z,18.52
2023-01-07T17:20:20.364Z,17.85
2023-01-07T17:22:34.997Z,18.08
2023-01-07T17:24:52.841Z,19.35
2023-01-07T17:27:02.400Z,17.58
2023-01-07T17:29:16.052Z,17.60
2023-01-07T17:31:23.860Z,19.00
2023-01-07T17:33:31.454Z,19.17
2023-01-07T17:35:46.723Z,18.73
2023-01-07T17:37:54.746Z,18.80
2023-01-07T17:40:01.651Z,18.23
2023-01-07T17:42:30.847Z,19.90
2023-01-07T17:44:39.766Z,20.15
2023-01-07T17:46:46.899Z,20.65
2023-01-07T17:48:53.873Z,19.58
2023-01-07T17:51:02.339Z,20.90
2023-01-07T17:53:09.311Z,19.70
2023-01-07T17:55:21.870Z,20.55
2023-01-07T17:57:28.882Z,20.08
2023-01-07T17:59:36.164Z,19.42
2023-01-07T18:01:45.007Z,20.27
2023-01-07T18:03:52.118Z,19.40
2023-01-07T18:05:59.451Z,20.67
2023-01-07T18:08:06.635Z,20.02
2023-01-07T18:10:16.430Z,19.20
2023-01-07T18:12:35.909Z,18.95
2023-01-07T18:14:42.940Z,19.17
2023-01-07T18:16:51.961Z,18.88
2023-01-07T18:18:59.308Z,19.85
2023-01-07T18:21:06.639Z,20.70
2023-01-07T18:23:15.208Z,19.23
2023-01-07T18:25:24.049Z,19.45
2023-01-07T18:27:31.374Z,19.83
2023-01-07T18:29:38.585Z,19.95
2023-01-07T18:31:46.784Z,20.45
2023-01-07T18:33:55.663Z,20.00
2023-01-07T18:36:02.614Z,19.38
2023-01-07T18:38:14.206Z,20.85
2023-01-07T18:40:22.057Z,20.05
2023-01-07T18:42:29.085Z,21.98
2023-01-07T18:44:35.907Z,19.45
2023-01-07T18:46:43.773Z,21.52
2023-01-07T18:48:50.735Z,19.65
2023-01-07T18:50:59.657Z,21.10
2023-01-07T18:53:06.597Z,20.25
2023-01-07T18:55:14.279Z,21.25
2023-01-07T18:57:21.055Z,19.00
2023-01-07T18:59:28.378Z,21.55
2023-01-07T19:01:35.412Z,20.23
2023-01-07T19:03:42.653Z,21.05
2023-01-07T19:05:49.537Z,21.77
2023-01-07T19:07:58.504Z,20.80
2023-01-07T19:10:05.427Z,19.88
2023-01-07T19:12:13.955Z,20.35
2023-01-07T19:14:20.819Z,21.05
2023-01-07T19:16:28.073Z,20.65
2023-01-07T19:18:34.932Z,21.65
2023-01-07T19:20:42.465Z,20.25
2023-01-07T19:22:49.444Z,21.60
2023-01-07T19:24:58.675Z,21.63
2023-01-07T19:27:05.854Z,21.73
2023-01-07T19:29:14.073Z,19.58
2023-01-07T19:31:21.065Z,20.98
2023-01-07T19:33:28.421Z,20.63
2023-01-07T19:35:35.297Z,22.85
2023-01-07T19:37:42.892Z,20.73
2023-01-07T19:39:49.983Z,21.67
2023-01-07T19:41:59.043Z,20.75
2023-01-07T19:44:06.079Z,21.83
2023-01-07T19:46:15.451Z,21.30
2023-01-07T19:48:22.433Z,21.25
2023-01-07T19:50:30.175Z,21.02
2023-01-07T19:52:37.376Z,22.10
2023-01-07T19:54:44.537Z,21.38
2023-01-07T19:56:52.029Z,22.10
2023-01-07T19:59:01.362Z,20.23
2023-01-07T20:01:09.189Z,21.05
2023-01-07T20:03:16.441Z,20.40
2023-01-07T20:05:24.645Z,21.80
2023-01-07T20:07:35.019Z,22.15
2023-01-07T20:09:42.897Z,22.55
2023-01-07T20:11:49.979Z,21.17
2023-01-07T20:13:57.245Z,22.45
2023-01-07T20:16:09.753Z,22.05
2023-01-07T20:18:18.475Z,21.75
2023-01-07T20:20:25.480Z,22.33
2023-01-07T20:22:34.094Z,22.40
2023-01-07T20:24:41.157Z,22.30
2023-01-07T20:26:48.798Z,22.27
2023-01-07T20:28:55.929Z,22.08
2023-01-07T20:31:03.525Z,21.73
2023-01-07T20:33:12.186Z,22.23
2023-01-07T20:35:19.881Z,21.70
2023-01-07T20:37:29.161Z,22.40
2023-01-07T20:39:36.450Z,22.10
2023-01-07T20:41:44.194Z,21.52
2023-01-07T20:43:55.394Z,21.90
2023-01-07T20:46:03.371Z,20.83
2023-01-07T20:48:12.799Z,22.85
2023-01-07T20:50:19.983Z,22.50
2023-01-07T20:52:27.557Z,21.40
2023-01-07T20:54:34.650Z,22.00
2023-01-07T20:56:41.989Z,20.83
2023-01-07T20:58:49.533Z,21.98
2023-01-07T21:00:56.796Z,22.00
2023-01-07T21:03:03.937Z,22.33
2023-01-07T21:05:13.377Z,21.40
2023-01-07T21:07:20.405Z,21.02
2023-01-07T21:09:27.896Z,22.23
2023-01-07T21:11:34.920Z,20.55
2023-01-07T21:13:42.306Z,21.27
2023-01-07T21:15:49.436Z,21.98
2023-01-07T21:17:57.933Z,22.77
2023-01-07T21:20:04.928Z,23.23
2023-01-07T21:22:14.034Z,22.95
2023-01-07T21:24:21.138Z,22.80
2023-01-07T21:26:28.469Z,22.92
2023-01-07T21:28:35.539Z,22.42
2023-01-07T21:30:42.839Z,24.33
2023-01-07T21:32:49.809Z,24.25
2023-01-07T21:34:57.096Z,23.08
2023-01-07T21:37:04.025Z,22.30
2023-01-07T21:39:15.967Z,23.80
2023-01-07T21:41:23.147Z,24.98
2023-01-07T21:43:30.375Z,23.35
2023-01-07T21:45:37.442Z,24.25
2023-01-07T21:47:44.839Z,23.88
2023-01-07T21:49:54.175Z,24.33
2023-01-07T21:52:01.663Z,22.95
2023-01-07T21:54:09.305Z,22.98
2023-01-07T21:56:19.290Z,23.60
2023-01-07T21:58:26.123Z,23.17
2023-01-07T22:00:33.461Z,21.88
2023-01-07T22:02:40.488Z,22.80
2023-01-07T22:04:47.726Z,22.38
2023-01-07T22:06:54.710Z,22.08
2023-01-07T22:09:03.123Z,22.33
2023-01-07T22:11:10.394Z,22.60
2023-01-07T22:13:19.315Z,22.05
2023-01-07T22:15:26.752Z,22.10
2023-01-07T22:17:34.035Z,21.73
2023-01-07T22:19:41.120Z,22.35
2023-01-07T22:21:48.195Z,23.58
2023-01-07T22:23:55.454Z,23.17
2023-01-07T22:26:06.963Z,22.73
2023-01-07T22:30:24.349Z,21.90
2023-01-07T22:32:31.546Z,22.13
2023-01-07T22:34:38.826Z,22.90
2023-01-07T22:36:49.935Z,24.70
2023-01-07T22:38:59.171Z,23.60
2023-01-07T22:41:06.857Z,23.77
2023-01-07T22:43:17.777Z,23.05
2023-01-07T22:45:35.332Z,23.25
2023-01-07T22:47:45.196Z,23.92
2023-01-07T22:49:54.014Z,23.02
2023-01-07T22:52:01.665Z,23.65
2023-01-07T22:54:09.103Z,23.10
2023-01-07T22:56:17.098Z,23.48
2023-01-07T22:58:24.077Z,24.30
2023-01-07T23:00:50.459Z,24.63
2023-01-07T23:02:57.502Z,23.85
2023-01-07T23:05:04.872Z,22.77
2023-01-07T23:07:11.900Z,24.02
2023-01-07T23:09:19.247Z,24.05
2023-01-07T23:11:42.747Z,24.17
2023-01-07T23:13:50.184Z,23.75
2023-01-07T23:15:59.181Z,23.77
2023-01-07T23:18:07.365Z,22.92
2023-01-07T23:20:14.831Z,24.42
2023-01-07T23:22:22.075Z,23.35
2023-01-07T23:24:29.064Z,23.02
2023-01-07T23:26:36.349Z,23.30
2023-01-07T23:28:43.332Z,24.00
2023-01-07T23:30:51.124Z,23.42
2023-01-07T23:33:00.091Z,24.80
2023-01-07T23:35:07.789Z,24.75
2023-01-07T23:37:14.866Z,24.42
2023-01-07T23:39:22.047Z,24.15
2023-01-07T23:41:28.926Z,24.23
2023-01-07T23:43:36.495Z,27.08
2023-01-07T23:45:43.445Z,26.15
2023-01-07T23:47:50.514Z,26.80
2023-01-07T23:49:59.038Z,24.67
2023-01-07T23:52:06.263Z,24.55
2023-01-07T23:54:13.649Z,25.52
2023-01-07T23:56:22.940Z,29.30
2023-01-07T23:58:29.999Z,30.05
